Time;durP1;ratioP1;P1;durP2;ratioP2;P2;SDS_P1;SDS_P2;PMS_P1;PMS_P2;Temp;Humidity;BMP_temperature;BMP_pressure;BME280_temperature;BME280_humidity;BME280_pressure;Samples;Min_cycle;Max_cycle;Signal;HPM_P1;HPM_P2
2021/04/30 00:03:19;;;;;;;28.02;25.13;;;;;;;;;;10339146;28;20048;-60
2021/04/30 00:08:17;;;;;;;27.88;24.25;;;;;;;;;;10337832;28;20071;-60
2021/04/30 00:13:14;;;;;;;25.92;23.17;;;;;;;;;;10337830;28;20047;-60
2021/04/30 00:18:12;;;;;;;27.95;25.00;;;;;;;;;;10337822;28;20032;-60
2021/04/30 00:23:12;;;;;;;27.00;24.13;;;;;;;;;;10337039;28;20047;-60
2021/04/30 00:28:09;;;;;;;30.08;26.90;;;;;;;;;;10338217;28;20090;-60
2021/04/30 00:33:07;;;;;;;29.17;26.10;;;;;;;;;;10335536;28;20409;-60
2021/04/30 00:38:06;;;;;;;34.88;27.45;;;;;;;;;;10335389;28;20048;-60
2021/04/30 00:43:03;;;;;;;37.67;28.42;;;;;;;;;;10337601;28;20041;-60
2021/04/30 00:48:00;;;;;;;28.98;25.98;;;;;;;;;;10335898;28;20527;-60
2021/04/30 00:52:58;;;;;;;34.90;25.05;;;;;;;;;;10336648;28;20488;-60
2021/04/30 00:57:57;;;;;;;33.25;26.77;;;;;;;;;;10337732;28;20079;-60
2021/04/30 01:02:55;;;;;;;28.90;25.90;;;;;;;;;;10335855;28;20047;-59
2021/04/30 01:07:52;;;;;;;33.22;25.40;;;;;;;;;;10337646;28;20522;-60
2021/04/30 01:12:50;;;;;;;34.05;27.27;;;;;;;;;;10334920;28;20036;-60
2021/04/30 01:17:48;;;;;;;32.25;26.23;;;;;;;;;;10337022;28;20405;-60
2021/04/30 01:22:47;;;;;;;30.38;25.75;;;;;;;;;;10335220;28;20068;-60
2021/04/30 01:27:44;;;;;;;26.95;23.80;;;;;;;;;;10336137;28;20064;-59
2021/04/30 01:32:42;;;;;;;33.40;27.10;;;;;;;;;;10336292;28;20070;-59
2021/04/30 01:37:39;;;;;;;38.25;28.25;;;;;;;;;;10335336;28;20040;-60
2021/04/30 01:42:37;;;;;;;31.50;26.50;;;;;;;;;;10336800;28;20086;-59
2021/04/30 01:47:35;;;;;;;34.65;27.33;;;;;;;;;;10316768;28;20079;-59
2021/04/30 01:52:32;;;;;;;35.42;27.98;;;;;;;;;;10322704;28;20090;-60
2021/04/30 01:57:30;;;;;;;29.95;25.88;;;;;;;;;;10322119;28;20071;-60
2021/04/30 02:02:44;;;;;;;34.42;27.77;;;;;;;;;;10322453;28;20512;-60
2021/04/30 02:07:42;;;;;;;31.17;27.50;;;;;;;;;;10342594;28;20077;-59
2021/04/30 02:12:40;;;;;;;29.10;26.00;;;;;;;;;;10344327;28;20044;-59
2021/04/30 02:17:37;;;;;;;44.03;27.05;;;;;;;;;;10341492;28;20473;-60
2021/04/30 02:22:36;;;;;;;40.10;28.92;;;;;;;;;;10343374;28;20068;-60
2021/04/30 02:27:33;;;;;;;31.98;25.67;;;;;;;;;;10341697;28;20075;-60
2021/04/30 02:32:31;;;;;;;29.20;25.85;;;;;;;;;;10342127;28;20037;-60
2021/04/30 02:37:28;;;;;;;33.47;26.80;;;;;;;;;;10341751;28;20412;-59
2021/04/30 02:42:26;;;;;;;27.27;23.67;;;;;;;;;;10340501;28;20075;-60
2021/04/30 02:47:29;;;;;;;26.73;23.92;;;;;;;;;;10342823;28;20083;-60
2021/04/30 02:52:26;;;;;;;24.70;22.15;;;;;;;;;;10340377;28;20060;-60
2021/04/30 02:57:25;;;;;;;28.98;21.75;;;;;;;;;;10341702;28;20080;-60
2021/04/30 03:02:23;;;;;;;43.92;23.10;;;;;;;;;;10339600;28;20044;-60
2021/04/30 03:07:21;;;;;;;55.03;25.98;;;;;;;;;;10341455;28;20064;-60
2021/04/30 03:12:18;;;;;;;144.32;30.15;;;;;;;;;;10339566;28;20043;-61
2021/04/30 03:17:15;;;;;;;310.65;35.42;;;;;;;;;;10340790;28;20037;-60
2021/04/30 03:22:13;;;;;;;67.50;27.63;;;;;;;;;;10340118;28;20473;-60
2021/04/30 03:27:11;;;;;;;89.07;32.42;;;;;;;;;;10338924;28;20075;-60
2021/04/30 03:32:08;;;;;;;33.15;27.33;;;;;;;;;;10339239;28;20052;-61
2021/04/30 03:37:07;;;;;;;33.33;26.77;;;;;;;;;;10338251;28;20070;-60
2021/04/30 03:42:06;;;;;;;58.10;28.15;;;;;;;;;;10338826;28;20421;-61
2021/04/30 03:47:04;;;;;;;30.63;24.58;;;;;;;;;;10339739;28;20083;-60
2021/04/30 03:52:01;;;;;;;31.52;26.30;;;;;;;;;;10338261;28;20040;-60
2021/04/30 03:56:59;;;;;;;39.90;25.77;;;;;;;;;;10338576;28;20078;-60
2021/04/30 04:01:58;;;;;;;37.67;27.83;;;;;;;;;;10338273;28;20075;-61
2021/04/30 04:06:56;;;;;;;36.67;24.40;;;;;;;;;;10337190;28;20075;-60
2021/04/30 04:11:53;;;;;;;32.13;23.55;;;;;;;;;;10337644;28;20047;-60
2021/04/30 04:16:51;;;;;;;25.88;22.17;;;;;;;;;;10336869;28;20051;-60
2021/04/30 04:21:50;;;;;;;25.42;21.58;;;;;;;;;;10336186;28;20052;-60
2021/04/30 04:26:47;;;;;;;27.75;24.73;;;;;;;;;;10337807;28;20076;-59
2021/04/30 04:31:45;;;;;;;29.95;26.73;;;;;;;;;;10337123;28;20044;-59
2021/04/30 04:36:43;;;;;;;22.02;19.90;;;;;;;;;;10337197;28;20544;-59
2021/04/30 04:41:42;;;;;;;23.58;18.83;;;;;;;;;;10334456;28;20059;-59
2021/04/30 04:46:39;;;;;;;24.05;20.65;;;;;;;;;;10333431;28;20072;-59
2021/04/30 04:51:36;;;;;;;31.95;22.25;;;;;;;;;;10335855;28;20037;-59
2021/04/30 04:56:34;;;;;;;24.48;21.88;;;;;;;;;;10333955;28;20543;-59
2021/04/30 05:01:32;;;;;;;26.63;23.85;;;;;;;;;;10337436;28;20041;-60
2021/04/30 05:06:30;;;;;;;26.95;23.85;;;;;;;;;;10335503;28;20075;-60
2021/04/30 05:11:27;;;;;;;26.70;23.90;;;;;;;;;;10335920;28;20040;-59
2021/04/30 05:16:24;;;;;;;43.33;36.45;;;;;;;;;;10336241;28;20036;-59
2021/04/30 05:21:22;;;;;;;38.15;32.55;;;;;;;;;;10335927;28;20080;-58
2021/04/30 05:26:20;;;;;;;34.20;29.20;;;;;;;;;;10361805;28;20963;-58
2021/04/30 05:31:18;;;;;;;29.70;26.67;;;;;;;;;;10356514;28;20068;-58
2021/04/30 05:36:15;;;;;;;30.25;27.02;;;;;;;;;;10346858;28;20086;-59
2021/04/30 05:41:13;;;;;;;30.73;25.02;;;;;;;;;;10343495;28;20072;-59
2021/04/30 05:46:11;;;;;;;27.33;24.35;;;;;;;;;;10347180;28;20402;-60
2021/04/30 05:51:10;;;;;;;30.67;24.00;;;;;;;;;;10345534;28;20060;-59
2021/04/30 05:56:08;;;;;;;27.92;21.58;;;;;;;;;;10341225;28;20051;-59
2021/04/30 06:01:06;;;;;;;23.52;21.23;;;;;;;;;;10341987;28;20071;-59
2021/04/30 06:06:03;;;;;;;33.22;29.65;;;;;;;;;;10343962;28;20064;-60
2021/04/30 06:11:01;;;;;;;28.77;22.30;;;;;;;;;;10341904;28;20075;-59
2021/04/30 06:15:58;;;;;;;29.48;22.05;;;;;;;;;;10342685;28;20044;-58
2021/04/30 06:20:56;;;;;;;26.95;21.33;;;;;;;;;;10341530;28;20527;-59
2021/04/30 06:25:54;;;;;;;22.88;20.40;;;;;;;;;;10341562;28;20422;-59
2021/04/30 06:30:51;;;;;;;25.13;21.30;;;;;;;;;;10341916;28;20044;-59
2021/04/30 06:35:49;;;;;;;26.63;20.52;;;;;;;;;;10339212;28;20083;-60
2021/04/30 06:40:47;;;;;;;25.98;21.70;;;;;;;;;;10341983;28;20075;-60
2021/04/30 06:45:44;;;;;;;24.27;21.83;;;;;;;;;;10339921;28;20071;-61
2021/04/30 06:50:42;;;;;;;25.20;21.70;;;;;;;;;;10341664;28;20067;-59
2021/04/30 06:55:39;;;;;;;28.52;24.25;;;;;;;;;;10341286;28;20048;-59
2021/04/30 07:00:37;;;;;;;31.67;22.27;;;;;;;;;;10340526;28;20055;-59
2021/04/30 07:05:35;;;;;;;24.33;21.55;;;;;;;;;;10339892;28;20043;-59
2021/04/30 07:10:33;;;;;;;31.67;24.58;;;;;;;;;;10340379;28;20087;-60
2021/04/30 07:15:30;;;;;;;27.90;22.63;;;;;;;;;;10342060;28;20060;-60
2021/04/30 07:20:30;;;;;;;30.70;23.13;;;;;;;;;;10339848;28;20497;-60
2021/04/30 07:25:28;;;;;;;36.03;29.17;;;;;;;;;;10339462;28;20067;-60
2021/04/30 07:30:25;;;;;;;31.23;23.48;;;;;;;;;;10339680;28;20535;-56
2021/04/30 07:35:23;;;;;;;32.63;22.35;;;;;;;;;;10339430;28;20036;-60
2021/04/30 07:40:21;;;;;;;26.65;21.98;;;;;;;;;;10340328;28;20076;-60
2021/04/30 07:45:18;;;;;;;26.90;22.13;;;;;;;;;;10338839;28;20486;-59
2021/04/30 07:50:16;;;;;;;28.05;20.13;;;;;;;;;;10340224;28;20084;-60
2021/04/30 07:55:13;;;;;;;22.15;19.48;;;;;;;;;;10338254;28;20047;-60
2021/04/30 08:00:12;;;;;;;32.28;21.58;;;;;;;;;;10339068;28;20087;-59
2021/04/30 08:05:10;;;;;;;26.90;21.85;;;;;;;;;;10338929;28;20433;-59
2021/04/30 08:10:08;;;;;;;31.60;24.60;;;;;;;;;;10338765;28;20068;-58
2021/04/30 08:15:06;;;;;;;25.73;20.85;;;;;;;;;;10338514;28;20047;-59
2021/04/30 08:20:05;;;;;;;29.73;21.17;;;;;;;;;;10337637;28;20085;-59
2021/04/30 08:25:03;;;;;;;32.75;24.67;;;;;;;;;;10339114;28;20076;-58
2021/04/30 08:30:01;;;;;;;28.98;23.20;;;;;;;;;;10336769;28;20064;-59
2021/04/30 08:34:58;;;;;;;34.63;26.00;;;;;;;;;;10335610;28;20054;-59
2021/04/30 08:39:57;;;;;;;34.47;26.67;;;;;;;;;;10338152;28;20048;-59
2021/04/30 08:44:54;;;;;;;29.92;25.20;;;;;;;;;;10337034;28;20484;-58
2021/04/30 08:49:53;;;;;;;27.50;21.35;;;;;;;;;;10336225;28;20064;-59
2021/04/30 08:54:52;;;;;;;27.98;23.20;;;;;;;;;;10337135;28;20075;-59
2021/04/30 08:59:55;;;;;;;31.92;24.75;;;;;;;;;;10335197;28;20052;-58
2021/04/30 09:04:52;;;;;;;26.98;23.42;;;;;;;;;;10336282;28;20040;-59
2021/04/30 09:10:00;;;;;;;33.40;24.83;;;;;;;;;;10336089;28;20484;-59
2021/04/30 09:14:58;;;;;;;32.58;23.45;;;;;;;;;;10336133;28;20068;-59
2021/04/30 09:19:59;;;;;;;29.25;24.48;;;;;;;;;;10336611;28;20051;-59
2021/04/30 09:24:57;;;;;;;32.08;23.60;;;;;;;;;;10336538;28;20513;-60
2021/04/30 09:29:55;;;;;;;25.48;22.73;;;;;;;;;;10336410;28;20635;-60
2021/04/30 09:34:55;;;;;;;32.50;24.23;;;;;;;;;;10336954;28;20067;-60
2021/04/30 09:39:54;;;;;;;27.83;23.60;;;;;;;;;;10335681;28;20043;-60
2021/04/30 09:44:52;;;;;;;29.08;21.35;;;;;;;;;;10337375;28;20081;-60
2021/04/30 09:49:50;;;;;;;32.95;23.90;;;;;;;;;;10334882;28;20071;-60
2021/04/30 09:54:49;;;;;;;26.83;23.23;;;;;;;;;;10335043;28;20056;-60
2021/04/30 09:59:53;;;;;;;37.75;28.92;;;;;;;;;;10336133;28;20521;-60
2021/04/30 10:04:51;;;;;;;27.17;21.50;;;;;;;;;;10334674;28;20497;-60
2021/04/30 10:10:00;;;;;;;30.45;22.75;;;;;;;;;;10339597;28;20068;-60
2021/04/30 10:14:57;;;;;;;27.05;22.77;;;;;;;;;;10342580;28;20041;-60
2021/04/30 10:19:55;;;;;;;28.00;22.70;;;;;;;;;;10342000;28;20088;-60
2021/04/30 10:24:54;;;;;;;26.60;22.42;;;;;;;;;;10341423;28;20044;-60
2021/04/30 10:29:55;;;;;;;28.25;22.23;;;;;;;;;;10338926;28;20079;-60
2021/04/30 10:34:53;;;;;;;25.42;21.88;;;;;;;;;;10341763;28;20047;-59
2021/04/30 10:39:59;;;;;;;28.08;20.95;;;;;;;;;;10327590;28;20103;-60
2021/04/30 10:45:01;;;;;;;27.60;23.90;;;;;;;;;;10331495;28;20047;-60
2021/04/30 10:50:09;;;;;;;24.08;19.92;;;;;;;;;;10340879;28;20083;-60
2021/04/30 10:55:09;;;;;;;29.08;21.00;;;;;;;;;;10341309;28;20063;-61
2021/04/30 11:00:06;;;;;;;25.23;19.70;;;;;;;;;;10340819;28;20057;-61
2021/04/30 11:05:15;;;;;;;20.98;18.25;;;;;;;;;;10342049;28;20039;-60
2021/04/30 11:10:31;;;;;;;22.67;20.05;;;;;;;;;;10339885;28;20072;-58
2021/04/30 11:15:52;;;;;;;23.90;18.90;;;;;;;;;;10341958;28;20040;-58
2021/04/30 11:21:04;;;;;;;25.13;19.00;;;;;;;;;;10339789;28;20076;-60
2021/04/30 11:26:04;;;;;;;25.63;20.45;;;;;;;;;;10318382;28;20056;-60
2021/04/30 11:31:03;;;;;;;21.75;18.50;;;;;;;;;;10332689;28;20064;-60
2021/04/30 11:36:01;;;;;;;21.23;18.08;;;;;;;;;;10338451;28;20498;-60
2021/04/30 11:41:14;;;;;;;23.25;17.00;;;;;;;;;;10338116;28;20064;-61
2021/04/30 11:46:12;;;;;;;20.45;17.65;;;;;;;;;;10338803;28;20044;-60
2021/04/30 11:51:10;;;;;;;17.55;13.95;;;;;;;;;;10337985;28;20072;-60
2021/04/30 11:56:08;;;;;;;30.73;27.10;;;;;;;;;;10339071;28;20066;-59
2021/04/30 12:01:06;;;;;;;20.17;14.32;;;;;;;;;;10335115;28;20047;-59
2021/04/30 12:06:04;;;;;;;16.65;14.77;;;;;;;;;;10336237;28;20071;-60
2021/04/30 12:11:01;;;;;;;18.40;14.25;;;;;;;;;;10338745;28;20083;-59
2021/04/30 12:15:59;;;;;;;16.80;14.05;;;;;;;;;;10337963;28;20071;-59
2021/04/30 12:20:56;;;;;;;15.30;13.70;;;;;;;;;;10337213;28;20514;-59
2021/04/30 12:25:54;;;;;;;17.85;14.15;;;;;;;;;;10337276;28;20051;-59
2021/04/30 12:30:56;;;;;;;16.85;14.00;;;;;;;;;;10335760;28;20067;-60
2021/04/30 12:35:55;;;;;;;19.90;14.52;;;;;;;;;;10336398;28;20065;-59
2021/04/30 12:40:54;;;;;;;17.95;15.55;;;;;;;;;;10338000;28;20074;-60
2021/04/30 12:45:51;;;;;;;18.13;12.70;;;;;;;;;;10335503;28;20040;-59
2021/04/30 12:50:49;;;;;;;17.40;12.57;;;;;;;;;;10334961;28;20473;-60
2021/04/30 12:55:46;;;;;;;15.85;14.15;;;;;;;;;;10335064;28;20087;-59
2021/04/30 13:00:54;;;;;;;16.25;14.30;;;;;;;;;;10333328;28;20048;-59
2021/04/30 13:05:51;;;;;;;14.90;12.85;;;;;;;;;;10332077;28;20037;-59
2021/04/30 13:10:59;;;;;;;16.48;13.25;;;;;;;;;;10336090;28;20084;-63
2021/04/30 13:15:58;;;;;;;15.43;12.10;;;;;;;;;;10315569;28;20098;-60
2021/04/30 13:20:55;;;;;;;14.10;10.00;;;;;;;;;;10328762;28;20516;-59
2021/04/30 13:25:57;;;;;;;14.85;11.25;;;;;;;;;;10335439;28;20084;-59
2021/04/30 13:30:55;;;;;;;10.07;8.90;;;;;;;;;;10335214;28;20072;-59
2021/04/30 13:36:03;;;;;;;11.70;8.38;;;;;;;;;;10336536;28;20048;-60
2021/04/30 13:41:10;;;;;;;14.95;9.30;;;;;;;;;;10334496;28;20037;-60
2021/04/30 13:46:11;;;;;;;15.00;10.93;;;;;;;;;;10342285;28;20054;-60
2021/04/30 13:51:17;;;;;;;13.90;10.38;;;;;;;;;;10343687;28;20087;-60
2021/04/30 13:56:15;;;;;;;17.38;9.43;;;;;;;;;;10340329;28;20052;-60
2021/04/30 14:01:18;;;;;;;11.93;8.90;;;;;;;;;;10343248;28;20087;-62
2021/04/30 14:06:28;;;;;;;12.57;7.68;;;;;;;;;;10341469;28;20075;-61
2021/04/30 14:11:25;;;;;;;10.57;8.65;;;;;;;;;;10322833;28;20111;-60
2021/04/30 14:16:23;;;;;;;15.77;9.20;;;;;;;;;;10322484;28;20076;-60
2021/04/30 14:21:21;;;;;;;10.98;8.65;;;;;;;;;;10321512;28;20526;-60
2021/04/30 14:26:19;;;;;;;18.33;16.10;;;;;;;;;;10322109;28;20056;-60
2021/04/30 14:31:16;;;;;;;12.05;7.97;;;;;;;;;;10325931;28;20068;-60
2021/04/30 14:36:13;;;;;;;10.50;9.32;;;;;;;;;;10342131;28;20036;-60
2021/04/30 14:41:12;;;;;;;11.05;7.68;;;;;;;;;;10341623;28;20528;-59
2021/04/30 14:46:13;;;;;;;14.13;8.48;;;;;;;;;;10342217;28;20082;-60
2021/04/30 14:51:11;;;;;;;10.80;8.38;;;;;;;;;;10340967;28;20073;-60
2021/04/30 14:56:08;;;;;;;27.45;19.88;;;;;;;;;;10341806;28;20076;-60
2021/04/30 15:01:06;;;;;;;12.65;9.93;;;;;;;;;;10341115;28;20087;-60
2021/04/30 15:06:04;;;;;;;21.35;9.57;;;;;;;;;;10338135;28;20442;-59
2021/04/30 15:11:01;;;;;;;11.48;8.45;;;;;;;;;;10339937;28;20210;-60
2021/04/30 15:15:59;;;;;;;14.43;8.52;;;;;;;;;;10341562;28;20063;-60
2021/04/30 15:20:58;;;;;;;17.85;8.98;;;;;;;;;;10339846;28;20090;-61
2021/04/30 15:25:56;;;;;;;14.98;7.68;;;;;;;;;;10341302;28;20045;-60
2021/04/30 15:30:53;;;;;;;37.20;24.20;;;;;;;;;;10339288;28;20071;-59
2021/04/30 15:35:50;;;;;;;20.73;14.40;;;;;;;;;;10339962;28;20047;-61
2021/04/30 15:40:48;;;;;;;27.05;21.83;;;;;;;;;;10339809;28;20464;-60
2021/04/30 15:45:48;;;;;;;48.28;34.30;;;;;;;;;;10338666;28;20041;-60
2021/04/30 15:50:45;;;;;;;30.83;19.60;;;;;;;;;;10338495;28;20071;-58
2021/04/30 15:55:42;;;;;;;16.55;8.07;;;;;;;;;;10326665;28;20540;-58
2021/04/30 16:00:41;;;;;;;60.63;36.90;;;;;;;;;;10333601;28;20083;-60
2021/04/30 16:05:38;;;;;;;76.25;47.17;;;;;;;;;;10332905;28;20064;-59
2021/04/30 16:10:36;;;;;;;14.77;8.85;;;;;;;;;;10335742;28;20086;-59
2021/04/30 16:15:33;;;;;;;30.08;18.80;;;;;;;;;;10336429;28;20523;-59
2021/04/30 16:20:31;;;;;;;17.02;11.40;;;;;;;;;;10337493;28;20151;-61
2021/04/30 16:25:28;;;;;;;15.73;12.32;;;;;;;;;;10339025;28;20087;-59
2021/04/30 16:30:26;;;;;;;14.70;12.18;;;;;;;;;;10336347;28;20098;-61
2021/04/30 16:35:23;;;;;;;17.90;11.77;;;;;;;;;;10337615;28;20068;-60
2021/04/30 16:40:21;;;;;;;13.52;8.15;;;;;;;;;;10336856;28;20539;-60
2021/04/30 16:45:19;;;;;;;15.10;8.73;;;;;;;;;;10337348;28;20489;-60
2021/04/30 16:50:16;;;;;;;71.75;55.63;;;;;;;;;;10337295;28;20064;-61
2021/04/30 16:55:14;;;;;;;11.35;9.30;;;;;;;;;;10336020;28;20406;-60
2021/04/30 17:00:12;;;;;;;14.70;9.40;;;;;;;;;;10337866;28;20067;-60
2021/04/30 17:05:10;;;;;;;11.38;6.32;;;;;;;;;;10316044;28;20084;-60
2021/04/30 17:10:08;;;;;;;10.60;5.72;;;;;;;;;;10315884;28;20080;-61
2021/04/30 17:15:06;;;;;;;9.40;6.22;;;;;;;;;;10315969;28;20041;-61
2021/04/30 17:20:05;;;;;;;10.43;5.03;;;;;;;;;;10315393;28;20044;-60
2021/04/30 17:25:03;;;;;;;14.27;7.03;;;;;;;;;;10315567;28;20067;-61
2021/04/30 17:30:02;;;;;;;13.77;6.72;;;;;;;;;;10315692;28;20088;-59
2021/04/30 17:35:00;;;;;;;19.02;16.02;;;;;;;;;;10315496;28;20398;-59
2021/04/30 17:39:58;;;;;;;17.23;9.30;;;;;;;;;;10315550;28;20055;-59
2021/04/30 17:44:55;;;;;;;9.98;7.13;;;;;;;;;;10334757;28;20075;-60
2021/04/30 17:49:53;;;;;;;14.52;10.80;;;;;;;;;;10331513;28;20098;-58
2021/04/30 17:54:50;;;;;;;11.35;6.32;;;;;;;;;;10336071;28;20473;-59
2021/04/30 17:59:49;;;;;;;7.63;6.05;;;;;;;;;;10335383;28;20048;-59
2021/04/30 18:04:46;;;;;;;9.85;8.05;;;;;;;;;;10334203;28;20053;-61
2021/04/30 18:09:43;;;;;;;12.30;6.75;;;;;;;;;;10321198;28;20131;-59
2021/04/30 18:14:41;;;;;;;86.43;66.95;;;;;;;;;;10324048;28;20738;-59
2021/04/30 18:19:40;;;;;;;13.85;9.15;;;;;;;;;;10326657;28;20490;-60
2021/04/30 18:24:39;;;;;;;10.60;6.25;;;;;;;;;;10331944;28;20063;-59
2021/04/30 18:29:37;;;;;;;10.52;7.50;;;;;;;;;;10325130;28;20490;-59
2021/04/30 18:34:36;;;;;;;13.82;10.07;;;;;;;;;;10341718;28;20071;-61
2021/04/30 18:39:51;;;;;;;11.95;8.85;;;;;;;;;;10340219;28;20075;-59
2021/04/30 18:44:48;;;;;;;18.05;10.80;;;;;;;;;;10339950;28;20425;-59
2021/04/30 18:49:46;;;;;;;17.60;8.23;;;;;;;;;;10327362;28;20489;-61
2021/04/30 18:54:44;;;;;;;11.77;7.60;;;;;;;;;;10342282;28;20064;-60
2021/04/30 18:59:42;;;;;;;11.95;5.93;;;;;;;;;;10338693;28;20545;-60
2021/04/30 19:04:39;;;;;;;5.20;4.40;;;;;;;;;;10330719;28;20070;-60
2021/04/30 19:09:38;;;;;;;6.32;4.32;;;;;;;;;;10339575;28;20095;-60
2021/04/30 19:14:35;;;;;;;6.40;4.38;;;;;;;;;;10337318;28;20072;-60
2021/04/30 19:19:34;;;;;;;11.45;4.97;;;;;;;;;;10337917;28;20067;-60
2021/04/30 19:24:31;;;;;;;15.32;6.93;;;;;;;;;;10337218;28;20067;-60
2021/04/30 19:29:30;;;;;;;8.25;5.82;;;;;;;;;;10337900;28;20101;-59
2021/04/30 19:34:27;;;;;;;6.55;4.72;;;;;;;;;;10338951;28;20044;-59
2021/04/30 19:39:25;;;;;;;8.77;6.57;;;;;;;;;;10334172;28;20064;-58
2021/04/30 19:44:23;;;;;;;6.90;5.07;;;;;;;;;;10316048;28;20493;-59
2021/04/30 19:49:20;;;;;;;6.47;3.22;;;;;;;;;;10318138;28;20056;-59
2021/04/30 19:54:17;;;;;;;10.50;6.88;;;;;;;;;;10318087;28;20120;-59
2021/04/30 19:59:16;;;;;;;6.95;4.13;;;;;;;;;;10318444;28;20052;-59
2021/04/30 20:04:13;;;;;;;12.38;6.78;;;;;;;;;;10328792;28;20040;-59
2021/04/30 20:09:11;;;;;;;11.02;6.80;;;;;;;;;;10336899;28;20040;-58
2021/04/30 20:14:08;;;;;;;8.38;4.85;;;;;;;;;;10338471;28;20079;-60
2021/04/30 20:19:06;;;;;;;6.78;4.13;;;;;;;;;;10337785;28;20120;-58
2021/04/30 20:24:04;;;;;;;7.15;3.47;;;;;;;;;;10337719;28;20099;-59
2021/04/30 20:29:02;;;;;;;9.13;5.13;;;;;;;;;;10337587;28;20082;-59
2021/04/30 20:33:59;;;;;;;6.18;3.67;;;;;;;;;;10335930;28;20068;-59
2021/04/30 20:38:57;;;;;;;4.78;3.55;;;;;;;;;;10338504;28;20043;-59
2021/04/30 20:43:55;;;;;;;11.05;7.43;;;;;;;;;;10335750;28;20044;-59
2021/04/30 20:48:52;;;;;;;10.02;3.67;;;;;;;;;;10337161;28;20048;-59
2021/04/30 20:53:49;;;;;;;8.40;4.95;;;;;;;;;;10334819;28;20063;-59
2021/04/30 20:58:48;;;;;;;5.38;2.88;;;;;;;;;;10334842;28;20482;-61
2021/04/30 21:03:46;;;;;;;16.50;11.82;;;;;;;;;;10332858;28;20072;-59
2021/04/30 21:08:43;;;;;;;6.30;3.10;;;;;;;;;;10333656;28;20461;-59
2021/04/30 21:18:58;;;;;;;7.97;3.17;;;;;;;;;;10336925;28;20064;-59
2021/04/30 21:23:55;;;;;;;4.65;2.55;;;;;;;;;;10335439;28;20138;-58
2021/04/30 21:28:53;;;;;;;8.55;3.85;;;;;;;;;;10335966;28;20421;-58
2021/04/30 21:33:50;;;;;;;6.15;2.78;;;;;;;;;;10336028;28;20070;-58
2021/04/30 21:38:49;;;;;;;9.13;3.83;;;;;;;;;;10334893;28;20064;-59
2021/04/30 21:43:46;;;;;;;7.25;3.65;;;;;;;;;;10336340;28;20082;-59
2021/04/30 21:48:43;;;;;;;8.27;4.50;;;;;;;;;;10333567;28;20043;-60
2021/04/30 21:53:41;;;;;;;9.38;4.82;;;;;;;;;;10335955;28;20064;-58
2021/04/30 21:58:39;;;;;;;7.75;3.33;;;;;;;;;;10334973;28;20052;-58
2021/04/30 22:03:37;;;;;;;5.25;2.70;;;;;;;;;;10337032;28;20040;-58
2021/04/30 22:08:34;;;;;;;10.02;3.03;;;;;;;;;;10342935;28;20508;-58
2021/04/30 22:13:31;;;;;;;6.07;2.83;;;;;;;;;;10341955;28;20082;-59
2021/04/30 22:18:30;;;;;;;6.88;3.97;;;;;;;;;;10343436;28;20051;-58
2021/04/30 22:23:27;;;;;;;8.40;2.47;;;;;;;;;;10322257;28;20464;-59
2021/04/30 22:28:25;;;;;;;4.10;2.60;;;;;;;;;;10321474;28;20036;-58
2021/04/30 22:33:22;;;;;;;4.90;3.40;;;;;;;;;;10321527;28;20515;-58
2021/04/30 22:38:20;;;;;;;5.32;2.58;;;;;;;;;;10321588;28;20079;-58
2021/04/30 22:43:18;;;;;;;6.53;3.60;;;;;;;;;;10320851;28;20040;-58
2021/04/30 22:48:15;;;;;;;6.53;3.13;;;;;;;;;;10321728;28;20115;-58
2021/04/30 22:53:13;;;;;;;2.63;1.92;;;;;;;;;;10321350;28;20088;-57
2021/04/30 22:58:11;;;;;;;7.50;3.22;;;;;;;;;;10320435;28;20080;-58
2021/04/30 23:03:09;;;;;;;7.80;2.30;;;;;;;;;;10334110;28;20087;-58
2021/04/30 23:08:06;;;;;;;6.05;3.13;;;;;;;;;;10339820;28;20040;-58
2021/04/30 23:13:04;;;;;;;8.32;5.18;;;;;;;;;;10341126;28;20512;-58
2021/04/30 23:18:02;;;;;;;9.88;5.10;;;;;;;;;;10339914;28;20070;-58
2021/04/30 23:23:00;;;;;;;10.32;6.70;;;;;;;;;;10336403;28;20068;-59
2021/04/30 23:27:57;;;;;;;10.48;3.38;;;;;;;;;;10338874;28;20044;-59
2021/04/30 23:32:55;;;;;;;6.75;3.22;;;;;;;;;;10340306;28;20151;-59
2021/04/30 23:37:53;;;;;;;5.63;3.22;;;;;;;;;;10338499;28;20048;-59
2021/04/30 23:42:50;;;;;;;7.30;2.95;;;;;;;;;;10340120;28;20048;-58
2021/04/30 23:47:48;;;;;;;6.53;3.00;;;;;;;;;;10338410;28;20036;-59
2021/04/30 23:52:45;;;;;;;5.43;3.20;;;;;;;;;;10338285;28;20075;-59
2021/04/30 23:57:43;;;;;;;10.82;5.75;;;;;;;;;;10338643;28;20068;-59
